Hlavní strana
METAR-TAF:

METAR-TAF

Letiště :

Letiště Rijeka

Rijeka, Chorvatsko

zeměpisná šířka: 45-13N, zeměpisná délka: 014-35E, výška: 85 m

Aktuální stav počasí

Zpráva byla vytvořena před 5 minutami, v 17:30 UTC
vítr z různých směrů 5 kt
Teplota 7°C
Vlhkost vzduchu 49%
Tlak 1025 hPa
Viditelnost 10 km a více
Skoro jasno ve výšce 5000 ft

METAR: LDRI 171730Z VRB05KT 9999 FEW050 07/M03 Q1025

Čas: 18:35 (17:35 UTC)

Předpověď počasí

Zpráva byla vytvořena před 6 hodinami a 10 minutami, v 11:25 UTC
Předpověď platná od 17 v 12 UTC do 18 v 12 UTC
Východoseverovýchodní vítr 10 kt
Viditelnost 10 km a více
Žádná oblačnost pod 1500 m, nevyskytují se cumulonimby.
Dočasný
od 17 v 12 UTC do 18 v 12 UTC
Východoseverovýchodní vítr 15 kt s nárazy do 30 kt
Pravděpodobnost 30% :
Dočasný
od 17 v 12 UTC do 18 v 12 UTC
vítr z různých směrů 8 kt

TAF: LDRI 171125Z 1712/1812 06010KT CAVOK TX12/1712Z TN04/1806Z TEMPO 1712/1812 06015G30KT PROB30 TEMPO 1712/1812 VRB08KT

Stav a předpovědi počasí z více než 4 000 letišť (zprávy METAR a TAF).

Červené a žluté tečky na mapě představují dostupné meteorologické stanice.

Když kurzor umístíte na tečku, zobrazí se název stanice.

Pak kliknutím zobrazíte stav a předpověď počasí.

Chcete-li změnit mapu, kliknutím na zelené tlačítko se znaménkem +mapu přiblížíte, kliknutím na zelené tlačítko se znaménkem – mapu oddálíte a kliknutím na zelené šipky přejdete na sousední mapy.


METAR-TAF: